createdAt,value
2019-02-25T00:00:29.707Z,25.10
2019-02-25T00:02:58.200Z,25.30
2019-02-25T00:05:26.772Z,25.40
2019-02-25T00:07:55.450Z,25.30
2019-02-25T00:10:24.090Z,25.30
2019-02-25T00:12:52.654Z,25.40
2019-02-25T00:15:21.256Z,25.60
2019-02-25T00:17:49.890Z,25.60
2019-02-25T00:20:18.528Z,25.30
2019-02-25T00:22:47.136Z,24.90
2019-02-25T00:25:16.656Z,25.10
2019-02-25T00:27:45.216Z,24.90
2019-02-25T00:30:15.127Z,25.20
2019-02-25T00:32:43.761Z,25.10
2019-02-25T00:35:12.396Z,25.20
2019-02-25T00:37:40.933Z,25.40
2019-02-25T00:40:11.669Z,25.40
2019-02-25T00:42:40.301Z,25.10
2019-02-25T00:45:29.973Z,24.60
2019-02-25T00:47:58.539Z,24.70
2019-02-25T00:50:27.112Z,24.20
2019-02-25T00:52:55.717Z,23.70
2019-02-25T00:55:24.277Z,24.00
2019-02-25T00:57:52.848Z,24.10
2019-02-25T01:00:22.419Z,24.90
2019-02-25T01:02:50.962Z,24.80
2019-02-25T01:05:19.427Z,24.30
2019-02-25T01:07:48.041Z,24.20
2019-02-25T01:10:17.272Z,23.20
2019-02-25T01:12:49.148Z,23.10
2019-02-25T01:15:18.324Z,23.50
2019-02-25T01:17:46.886Z,24.00
2019-02-25T01:20:16.824Z,24.40
2019-02-25T01:22:45.425Z,24.20
2019-02-25T01:25:15.757Z,24.20
2019-02-25T01:27:44.321Z,24.10
2019-02-25T01:30:17.526Z,24.20
2019-02-25T01:32:46.161Z,24.20
2019-02-25T01:35:14.802Z,24.60
2019-02-25T01:37:43.479Z,24.50
2019-02-25T01:40:13.647Z,24.50
2019-02-25T01:42:42.283Z,24.30
2019-02-25T01:45:17.496Z,24.10
2019-02-25T01:47:46.000Z,23.40
2019-02-25T01:50:14.571Z,22.60
2019-02-25T01:52:43.181Z,22.60
2019-02-25T01:55:12.716Z,22.70
2019-02-25T01:57:41.278Z,22.50
2019-02-25T02:00:12.486Z,23.00
2019-02-25T02:02:41.137Z,23.50
2019-02-25T02:05:09.689Z,22.90
2019-02-25T02:07:38.286Z,22.20
2019-02-25T02:10:10.118Z,22.10
2019-02-25T02:12:38.614Z,22.60
2019-02-25T02:15:15.271Z,22.00
2019-02-25T02:17:43.840Z,22.10
2019-02-25T02:20:14.476Z,21.40
2019-02-25T02:22:43.076Z,21.30
2019-02-25T02:25:12.438Z,21.40
2019-02-25T02:27:41.991Z,21.20
2019-02-25T02:30:15.774Z,21.00
2019-02-25T02:32:44.392Z,20.10
2019-02-25T02:35:12.837Z,20.60
2019-02-25T02:37:41.368Z,20.90
2019-02-25T02:40:13.753Z,22.20
2019-02-25T02:42:59.877Z,22.20
2019-02-25T02:45:48.366Z,21.50
2019-02-25T02:48:23.182Z,21.00
2019-02-25T02:50:51.681Z,21.20
2019-02-25T02:53:20.195Z,22.10
2019-02-25T02:55:48.791Z,21.80
2019-02-25T02:58:17.358Z,21.80
2019-02-25T03:00:45.929Z,21.30
2019-02-25T03:03:14.540Z,20.90
2019-02-25T03:05:43.116Z,21.60
2019-02-25T03:08:11.615Z,21.50
2019-02-25T03:10:40.220Z,20.90
2019-02-25T03:13:08.788Z,21.50
2019-02-25T03:15:37.339Z,22.00
2019-02-25T03:18:05.868Z,21.60
2019-02-25T03:20:34.431Z,21.20
2019-02-25T03:23:02.933Z,21.60
2019-02-25T03:25:31.539Z,22.10
2019-02-25T03:28:00.111Z,22.70
2019-02-25T03:30:28.609Z,23.80
2019-02-25T03:32:57.227Z,23.20
2019-02-25T03:35:25.713Z,23.80
2019-02-25T03:37:54.283Z,23.50
2019-02-25T03:40:23.688Z,21.70
2019-02-25T03:42:52.176Z,22.90
2019-02-25T03:45:20.938Z,22.80
2019-02-25T03:47:49.544Z,23.90
2019-02-25T03:50:18.106Z,24.60
2019-02-25T03:52:46.674Z,24.20
2019-02-25T03:55:19.452Z,24.50
2019-02-25T03:57:47.943Z,25.10
2019-02-25T04:00:21.436Z,25.30
2019-02-25T04:02:49.941Z,25.20
2019-02-25T04:05:18.509Z,25.10
2019-02-25T04:07:46.997Z,25.00
2019-02-25T04:10:15.713Z,24.80
2019-02-25T04:12:44.274Z,24.70
2019-02-25T04:15:16.772Z,24.50
2019-02-25T04:17:45.841Z,24.20
2019-02-25T04:20:18.013Z,24.30
2019-02-25T04:22:46.533Z,24.50
2019-02-25T04:25:15.060Z,24.50
2019-02-25T04:27:43.550Z,23.80
2019-02-25T04:30:16.265Z,23.50
2019-02-25T04:32:44.869Z,23.40
2019-02-25T04:35:13.831Z,22.50
2019-02-25T04:37:42.400Z,22.50
2019-02-25T04:40:13.464Z,22.60
2019-02-25T04:42:42.030Z,22.50
2019-02-25T04:45:13.482Z,22.50
2019-02-25T04:47:42.061Z,21.70
2019-02-25T04:50:11.725Z,21.70
2019-02-25T04:52:40.220Z,22.30
2019-02-25T04:55:10.499Z,22.90
2019-02-25T04:57:39.136Z,23.00
2019-02-25T05:00:13.563Z,23.40
2019-02-25T05:02:42.161Z,23.30
2019-02-25T05:05:10.795Z,23.80
2019-02-25T05:07:39.430Z,23.90
2019-02-25T05:10:16.114Z,23.80
2019-02-25T05:12:55.460Z,23.60
2019-02-25T05:15:25.648Z,23.70
2019-02-25T05:17:54.203Z,23.80
2019-02-25T05:20:22.775Z,23.90
2019-02-25T05:22:51.461Z,23.40
2019-02-25T05:25:20.020Z,23.80
2019-02-25T05:27:48.507Z,23.80
2019-02-25T05:30:17.355Z,23.80
2019-02-25T05:32:45.906Z,23.70
2019-02-25T05:35:14.492Z,23.50
2019-02-25T05:37:43.094Z,23.30
2019-02-25T05:40:14.786Z,23.50
2019-02-25T05:42:44.985Z,23.40
2019-02-25T05:45:14.483Z,23.70
2019-02-25T05:47:43.062Z,24.20
2019-02-25T05:50:15.170Z,23.90
2019-02-25T05:52:43.779Z,24.00
2019-02-25T05:55:14.268Z,23.70
2019-02-25T05:57:42.830Z,23.50
2019-02-25T06:00:18.013Z,23.50
2019-02-25T06:02:46.578Z,23.80
2019-02-25T06:05:15.213Z,23.20
2019-02-25T06:07:43.824Z,23.30
2019-02-25T06:10:13.451Z,23.30
2019-02-25T06:12:42.086Z,23.50
2019-02-25T06:15:13.630Z,24.00
2019-02-25T06:17:42.266Z,24.10
2019-02-25T06:20:13.110Z,24.10
2019-02-25T06:22:41.713Z,24.10
2019-02-25T06:25:12.148Z,24.30
2019-02-25T06:27:40.783Z,23.90
2019-02-25T06:30:12.259Z,23.20
2019-02-25T06:32:41.267Z,23.20
2019-02-25T06:35:10.727Z,23.20
2019-02-25T06:37:39.272Z,23.40
2019-02-25T06:40:11.373Z,23.60
2019-02-25T06:42:40.014Z,23.70
2019-02-25T06:45:11.812Z,23.30
2019-02-25T06:47:40.439Z,23.40
2019-02-25T06:50:10.268Z,23.20
2019-02-25T06:52:38.943Z,23.00
2019-02-25T06:55:15.690Z,23.30
2019-02-25T06:57:44.361Z,23.10
2019-02-25T07:00:17.901Z,22.60
2019-02-25T07:02:46.472Z,23.00
2019-02-25T07:05:25.739Z,22.10
2019-02-25T07:08:01.896Z,20.90
2019-02-25T07:10:34.997Z,21.30
2019-02-25T07:13:21.424Z,21.30
2019-02-25T07:15:51.672Z,21.80
2019-02-25T07:18:33.889Z,22.30
2019-02-25T07:21:12.953Z,22.40
2019-02-25T07:23:52.061Z,22.90
2019-02-25T07:26:38.492Z,23.40
2019-02-25T07:29:08.687Z,23.40
2019-02-25T07:31:47.970Z,22.10
2019-02-25T07:34:18.189Z,22.30
2019-02-25T07:36:54.638Z,21.30
2019-02-25T07:39:27.736Z,19.30
2019-02-25T07:41:57.910Z,19.10
2019-02-25T07:44:30.867Z,18.70
2019-02-25T07:47:04.026Z,18.60
2019-02-25T07:49:37.152Z,18.90
2019-02-25T07:52:16.689Z,18.40
2019-02-25T07:55:02.849Z,17.70
2019-02-25T07:57:38.858Z,18.30
2019-02-25T08:00:30.403Z,18.50
2019-02-25T08:03:00.651Z,18.80
2019-02-25T08:05:30.876Z,18.70
2019-02-25T08:08:06.935Z,19.60
2019-02-25T08:10:37.147Z,20.70
2019-02-25T08:13:16.236Z,21.20
2019-02-25T08:15:46.435Z,22.20
2019-02-25T08:18:19.427Z,23.20
2019-02-25T08:20:49.678Z,23.70
2019-02-25T08:23:28.448Z,23.90
2019-02-25T08:26:01.367Z,23.60
2019-02-25T08:28:35.692Z,23.40
2019-02-25T08:31:06.499Z,23.90
2019-02-25T08:33:40.816Z,24.10
2019-02-25T08:36:19.690Z,24.30
2019-02-25T08:38:56.186Z,24.30
2019-02-25T08:41:29.628Z,24.10
2019-02-25T08:44:19.187Z,24.00
2019-02-25T08:46:55.436Z,24.20
2019-02-25T08:49:25.980Z,24.40
2019-02-25T08:51:54.545Z,24.30
2019-02-25T08:54:23.155Z,24.60
2019-02-25T08:56:51.657Z,23.80
2019-02-25T08:59:20.151Z,23.80
2019-02-25T09:01:48.760Z,24.20
2019-02-25T09:04:17.319Z,24.60
2019-02-25T09:06:45.890Z,24.10
2019-02-25T09:09:14.434Z,24.80
2019-02-25T09:11:43.409Z,24.70
2019-02-25T09:14:11.976Z,24.10
2019-02-25T09:16:40.657Z,24.70
2019-02-25T09:19:09.151Z,25.10
2019-02-25T09:21:37.650Z,25.20
2019-02-25T09:24:06.183Z,25.30
2019-02-25T09:26:34.831Z,25.40
2019-02-25T09:29:03.385Z,25.90
2019-02-25T09:31:31.979Z,26.00
2019-02-25T09:34:00.567Z,26.10
2019-02-25T09:36:29.047Z,26.50
2019-02-25T09:38:57.582Z,26.20
2019-02-25T09:41:29.956Z,26.00
2019-02-25T09:43:56.278Z,25.90
2019-02-25T09:46:24.887Z,25.60
2019-02-25T09:48:53.451Z,25.40
2019-02-25T09:51:21.952Z,23.90
2019-02-25T09:53:50.556Z,23.00
2019-02-25T09:56:19.135Z,21.70
2019-02-25T09:58:47.971Z,21.90
2019-02-25T10:01:16.509Z,22.10
2019-02-25T10:03:45.144Z,20.70
2019-02-25T10:06:13.711Z,20.40
2019-02-25T10:08:42.318Z,20.40
2019-02-25T10:11:10.823Z,21.10
2019-02-25T10:13:39.330Z,21.80
2019-02-25T10:16:08.017Z,21.80
2019-02-25T10:18:36.655Z,21.40
2019-02-25T10:21:05.301Z,22.00
2019-02-25T10:23:33.830Z,21.80
2019-02-25T10:26:02.470Z,22.70
2019-02-25T10:28:31.104Z,21.90
2019-02-25T10:31:01.261Z,22.10
2019-02-25T10:33:29.822Z,22.40
2019-02-25T10:35:59.316Z,22.60
2019-02-25T10:38:28.068Z,22.40
2019-02-25T10:40:56.613Z,21.60
2019-02-25T10:43:26.141Z,21.20
2019-02-25T10:45:55.366Z,21.40
2019-02-25T10:48:25.766Z,20.70
2019-02-25T10:50:56.293Z,19.90
2019-02-25T10:53:24.520Z,19.60
2019-02-25T10:55:58.828Z,18.70
2019-02-25T10:58:29.122Z,19.20
2019-02-25T11:00:57.716Z,20.80
2019-02-25T11:03:26.279Z,20.70
2019-02-25T11:05:56.416Z,20.80
2019-02-25T11:08:25.261Z,21.10
2019-02-25T11:10:58.650Z,21.80
2019-02-25T11:13:27.614Z,21.80
2019-02-25T11:15:57.474Z,22.70
2019-02-25T11:18:28.222Z,23.00
2019-02-25T11:20:56.456Z,22.90
2019-02-25T11:23:25.014Z,23.00
2019-02-25T11:25:54.295Z,22.20
2019-02-25T11:28:26.038Z,22.90
2019-02-25T11:30:54.078Z,22.90
2019-02-25T11:33:24.755Z,23.00
2019-02-25T11:35:52.905Z,23.20
2019-02-25T11:38:21.541Z,22.40
2019-02-25T11:40:50.163Z,21.90
2019-02-25T11:43:21.068Z,22.10
2019-02-25T11:45:49.047Z,22.30
2019-02-25T11:48:17.683Z,22.80
2019-02-25T11:50:46.234Z,22.00
2019-02-25T11:53:14.873Z,22.40
2019-02-25T11:55:43.501Z,22.90
2019-02-25T11:58:12.124Z,21.60
2019-02-25T12:00:40.624Z,21.50
2019-02-25T12:03:09.196Z,21.20
2019-02-25T12:05:37.810Z,21.40
2019-02-25T12:08:06.449Z,22.40
2019-02-25T12:10:34.946Z,22.50
2019-02-25T12:13:03.548Z,22.10
2019-02-25T12:15:32.114Z,22.40
2019-02-25T12:18:00.744Z,22.90
2019-02-25T12:20:29.363Z,22.70
2019-02-25T12:22:57.994Z,22.40
2019-02-25T12:25:26.485Z,22.30
2019-02-25T12:27:55.023Z,22.20
2019-02-25T12:30:24.446Z,22.20
2019-02-25T12:32:52.991Z,22.60
2019-02-25T12:35:21.548Z,23.20
2019-02-25T12:37:50.966Z,23.50
2019-02-25T12:40:19.598Z,24.00
2019-02-25T12:42:48.208Z,22.20
2019-02-25T12:45:16.864Z,22.50
2019-02-25T12:47:45.364Z,22.60
2019-02-25T12:50:17.500Z,22.70
2019-02-25T12:52:46.074Z,23.10
2019-02-25T12:55:15.547Z,22.10
2019-02-25T12:57:44.167Z,22.00
2019-02-25T13:00:15.454Z,22.20
2019-02-25T13:02:44.025Z,22.20
2019-02-25T13:05:15.000Z,22.60
2019-02-25T13:07:43.503Z,22.10
2019-02-25T13:10:15.768Z,22.30
2019-02-25T13:12:44.443Z,22.30
2019-02-25T13:15:19.426Z,22.40
2019-02-25T13:17:47.975Z,21.80
2019-02-25T13:20:16.501Z,20.90
2019-02-25T13:22:45.066Z,21.20
2019-02-25T13:25:16.358Z,21.90
2019-02-25T13:27:44.987Z,22.30
2019-02-25T13:30:17.718Z,21.80
2019-02-25T13:32:46.277Z,21.40
2019-02-25T13:35:15.510Z,21.10
2019-02-25T13:37:44.072Z,21.20
2019-02-25T13:40:16.630Z,21.80
2019-02-25T13:42:45.134Z,21.50
2019-02-25T13:45:18.281Z,22.10
2019-02-25T13:47:47.055Z,22.00
2019-02-25T13:50:16.434Z,22.60
2019-02-25T13:52:48.231Z,22.40
2019-02-25T13:55:17.710Z,22.60
2019-02-25T13:57:46.211Z,23.10
2019-02-25T14:00:19.695Z,23.90
2019-02-25T14:02:48.293Z,24.30
2019-02-25T14:05:16.933Z,24.50
2019-02-25T14:07:45.706Z,24.70
2019-02-25T14:10:16.267Z,24.10
2019-02-25T14:12:44.838Z,23.30
2019-02-25T14:15:15.991Z,23.50
2019-02-25T14:17:44.717Z,23.10
2019-02-25T14:20:18.174Z,23.80
2019-02-25T14:22:46.662Z,23.10
2019-02-25T14:25:19.756Z,22.70
2019-02-25T14:27:48.495Z,22.40
2019-02-25T14:30:22.610Z,22.30
2019-02-25T14:32:53.391Z,22.40
2019-02-25T14:35:28.206Z,22.60
2019-02-25T14:37:56.902Z,23.20
2019-02-25T14:40:26.915Z,24.00
2019-02-25T14:42:56.808Z,24.50
2019-02-25T14:45:26.495Z,24.80
2019-02-25T14:47:59.667Z,24.10
2019-02-25T14:50:26.112Z,24.00
2019-02-25T14:52:54.704Z,24.30
2019-02-25T14:55:23.570Z,24.30
2019-02-25T14:57:52.133Z,24.50
2019-02-25T15:00:26.154Z,23.40
2019-02-25T15:02:54.922Z,22.50
2019-02-25T15:05:26.301Z,23.20
2019-02-25T15:07:54.903Z,23.40
2019-02-25T15:10:26.604Z,23.10
2019-02-25T15:12:56.529Z,23.60
2019-02-25T15:15:24.928Z,24.50
2019-02-25T15:17:53.490Z,24.30
2019-02-25T15:20:23.334Z,23.80
2019-02-25T15:22:52.832Z,23.60
2019-02-25T15:25:21.580Z,23.40
2019-02-25T15:27:50.204Z,22.90
2019-02-25T15:30:30.840Z,22.70
2019-02-25T15:33:00.473Z,22.80
2019-02-25T15:35:32.461Z,22.80
2019-02-25T15:38:00.364Z,23.10
2019-02-25T15:40:29.298Z,23.30
2019-02-25T15:43:12.548Z,23.80
2019-02-25T15:45:42.474Z,24.10
2019-02-25T15:48:18.498Z,24.10
2019-02-25T15:50:48.559Z,24.60
2019-02-25T15:53:17.282Z,23.00
2019-02-25T15:55:45.958Z,23.10
2019-02-25T15:58:14.695Z,23.20
2019-02-25T16:00:43.826Z,23.30
2019-02-25T16:03:13.678Z,23.50
2019-02-25T16:05:43.484Z,23.30
2019-02-25T16:08:15.775Z,22.90
2019-02-25T16:10:46.953Z,22.60
2019-02-25T16:13:16.208Z,23.00
2019-02-25T16:15:44.781Z,22.20
2019-02-25T16:18:14.082Z,22.20
2019-02-25T16:20:45.780Z,22.10
2019-02-25T16:23:13.348Z,22.00
2019-02-25T16:25:42.209Z,22.30
2019-02-25T16:28:12.539Z,21.90
2019-02-25T16:30:42.337Z,22.30
2019-02-25T16:33:13.645Z,22.70
2019-02-25T16:35:43.633Z,23.50
2019-02-25T16:38:12.115Z,23.10
2019-02-25T16:40:42.122Z,22.90
2019-02-25T16:43:12.633Z,23.20
2019-02-25T16:45:42.552Z,22.40
2019-02-25T16:48:11.460Z,22.40
2019-02-25T16:50:43.376Z,22.80
2019-02-25T16:53:10.990Z,22.40
2019-02-25T16:55:42.803Z,22.20
2019-02-25T16:58:13.193Z,21.90
2019-02-25T17:00:41.767Z,20.90
2019-02-25T17:03:11.152Z,20.90
2019-02-25T17:05:42.828Z,20.80
2019-02-25T17:08:12.661Z,21.60
2019-02-25T17:10:41.368Z,21.80
2019-02-25T17:13:10.906Z,22.60
2019-02-25T17:15:40.407Z,21.90
2019-02-25T17:18:09.464Z,21.80
2019-02-25T17:20:38.117Z,22.00
2019-02-25T17:23:09.539Z,21.40
2019-02-25T17:25:38.924Z,21.80
2019-02-25T17:28:08.194Z,20.70
2019-02-25T17:30:38.538Z,20.80
2019-02-25T17:33:10.091Z,20.60
2019-02-25T17:35:39.082Z,20.90
2019-02-25T17:38:07.767Z,20.40
2019-02-25T17:40:36.495Z,20.30
2019-02-25T17:43:05.842Z,20.60
2019-02-25T17:45:36.589Z,20.90
2019-02-25T17:48:06.025Z,21.00
2019-02-25T17:50:37.042Z,21.00
2019-02-25T17:53:07.153Z,21.00
2019-02-25T17:55:36.286Z,21.10
2019-02-25T17:58:04.958Z,20.70
2019-02-25T18:00:39.353Z,21.10
2019-02-25T18:03:08.302Z,21.00
2019-02-25T18:05:38.704Z,20.60
2019-02-25T18:08:10.009Z,20.60
2019-02-25T18:10:38.708Z,20.60
2019-02-25T18:13:08.666Z,20.60
2019-02-25T18:15:37.570Z,20.30
2019-02-25T18:18:11.642Z,20.20
2019-02-25T18:20:39.348Z,20.20
2019-02-25T18:23:09.324Z,20.40
2019-02-25T18:25:39.753Z,20.50
2019-02-25T18:28:08.528Z,20.70
2019-02-25T18:30:38.912Z,21.10
2019-02-25T18:33:08.249Z,21.30
2019-02-25T18:35:38.830Z,21.10
2019-02-25T18:38:09.347Z,21.20
2019-02-25T18:40:40.134Z,21.30
2019-02-25T18:43:07.848Z,21.40
2019-02-25T18:45:38.446Z,21.50
2019-02-25T18:48:07.892Z,20.50
2019-02-25T18:50:36.561Z,20.00
2019-02-25T18:53:05.244Z,20.00
2019-02-25T18:55:35.448Z,19.50
2019-02-25T18:58:05.100Z,19.60
2019-02-25T19:00:37.468Z,19.00
2019-02-25T19:05:35.783Z,18.30
2019-02-25T19:08:09.707Z,18.10
2019-02-25T19:10:41.256Z,18.00
2019-02-25T19:13:09.324Z,18.70
2019-02-25T19:15:37.938Z,18.10
2019-02-25T19:18:07.393Z,18.20
2019-02-25T19:20:38.550Z,18.60
2019-02-25T19:23:10.186Z,18.70
2019-02-25T19:25:38.404Z,18.70
2019-02-25T19:30:36.098Z,18.60
2019-02-25T19:33:11.034Z,19.20
2019-02-25T19:35:38.003Z,19.30
2019-02-25T19:38:07.850Z,19.50
2019-02-25T19:53:07.676Z,18.70
2019-02-25T19:55:38.630Z,18.60
2019-02-25T19:58:07.207Z,18.70
2019-02-25T20:08:04.736Z,18.70
2019-02-25T20:13:07.787Z,18.50
2019-02-25T20:18:07.001Z,18.70
2019-02-25T20:20:36.564Z,19.10
2019-02-25T20:23:08.181Z,19.50
2019-02-25T20:25:36.508Z,19.90
2019-02-25T20:28:06.651Z,19.50
2019-02-25T20:30:35.333Z,20.10
2019-02-25T20:33:06.831Z,20.20
2019-02-25T20:35:35.766Z,20.30
2019-02-25T20:38:05.201Z,20.10
2019-02-25T20:40:35.544Z,20.30
2019-02-25T20:43:04.190Z,20.20
2019-02-25T20:45:35.554Z,20.70
2019-02-25T20:48:05.664Z,19.50
2019-02-25T20:50:34.332Z,20.30
2019-02-25T20:53:05.700Z,22.60
2019-02-25T20:55:34.553Z,20.60
2019-02-25T20:58:03.683Z,19.60
2019-02-25T21:00:34.852Z,19.80
2019-02-25T21:03:02.641Z,20.20
2019-02-25T21:05:31.208Z,20.40
2019-02-25T21:08:00.289Z,21.20
2019-02-25T21:10:32.595Z,18.00
2019-02-25T21:13:02.200Z,20.10
2019-02-25T21:15:33.390Z,19.80
2019-02-25T21:18:04.002Z,19.80
2019-02-25T21:20:32.136Z,19.60
2019-02-25T21:23:04.845Z,19.70
2019-02-25T21:25:32.048Z,18.80
2019-02-25T21:32:59.495Z,19.70
2019-02-25T21:45:27.506Z,19.20
2019-02-25T21:52:55.874Z,19.60
2019-02-25T21:57:55.419Z,20.40
2019-02-25T22:00:27.154Z,20.70
2019-02-25T22:05:24.515Z,21.30
2019-02-25T22:07:55.413Z,21.50
2019-02-25T22:15:22.392Z,21.20
2019-02-25T22:17:53.208Z,22.00
2019-02-25T22:20:22.635Z,21.70
2019-02-25T22:25:24.599Z,21.40
2019-02-25T22:30:21.419Z,20.90
2019-02-25T22:32:49.982Z,21.00
2019-02-25T22:35:18.477Z,20.40
2019-02-25T22:40:17.681Z,20.50
2019-02-25T22:45:21.972Z,20.70
2019-02-25T22:47:50.533Z,20.90
2019-02-25T22:52:51.310Z,19.50
2019-02-25T22:55:20.776Z,19.30
2019-02-25T22:57:51.203Z,18.90
2019-02-25T23:00:30.340Z,19.00
2019-02-25T23:02:58.978Z,18.60
2019-02-25T23:05:30.827Z,19.30
2019-02-25T23:07:59.441Z,19.60
2019-02-25T23:10:28.087Z,19.50
2019-02-25T23:15:27.309Z,19.20
2019-02-25T23:20:25.603Z,19.80
2019-02-25T23:22:57.287Z,20.50
2019-02-25T23:27:55.721Z,20.70
2019-02-25T23:30:24.293Z,21.30
2019-02-25T23:32:54.533Z,21.80
2019-02-25T23:35:25.277Z,21.40
2019-02-25T23:40:23.633Z,21.40
2019-02-25T23:45:23.071Z,20.40
2019-02-25T23:50:20.581Z,20.00
2019-02-25T23:52:50.116Z,20.40
2019-02-25T23:55:19.642Z,20.50
